Time;durP1;ratioP1;P1;durP2;ratioP2;P2;SDS_P1;SDS_P2;PMS_P1;PMS_P2;Temp;Humidity;BMP_temperature;BMP_pressure;BME280_temperature;BME280_humidity;BME280_pressure;Samples;Min_cycle;Max_cycle;Signal;HPM_P1;HPM_P2
2023/09/30 00:02:17;;;;;;;8.32;2.50;;;25.40;99.90;;;;;;5093792;28;20081;-47
2023/09/30 00:04:42;;;;;;;3.80;2.60;;;25.40;99.90;;;;;;5093414;28;20027;-48
2023/09/30 00:07:08;;;;;;;4.03;3.10;;;25.40;99.90;;;;;;5093269;28;20438;-47
2023/09/30 00:09:34;;;;;;;7.78;3.22;;;25.40;99.90;;;;;;5088050;28;20058;-50
2023/09/30 00:12:00;;;;;;;5.25;2.88;;;25.40;99.90;;;;;;5094321;28;20106;-47
2023/09/30 00:14:26;;;;;;;6.30;3.20;;;25.40;99.90;;;;;;5108490;28;20034;-46
2023/09/30 00:16:51;;;;;;;6.50;3.10;;;25.30;99.90;;;;;;5109219;28;20034;-45
2023/09/30 00:19:17;;;;;;;4.28;3.63;;;25.40;99.90;;;;;;5100019;28;20453;-47
2023/09/30 00:21:43;;;;;;;6.35;3.22;;;25.30;99.90;;;;;;5091337;28;20034;-47
2023/09/30 00:24:09;;;;;;;12.18;3.50;;;25.30;99.90;;;;;;5074750;28;20016;-47
2023/09/30 00:26:35;;;;;;;5.25;3.85;;;25.30;99.90;;;;;;5091612;28;20342;-48
2023/09/30 00:29:04;;;;;;;3.80;2.90;;;25.30;99.90;;;;;;5091413;28;20422;-47
2023/09/30 00:31:31;;;;;;;7.32;3.30;;;25.30;99.90;;;;;;5092277;28;20495;-48
2023/09/30 00:33:57;;;;;;;8.07;3.80;;;25.30;99.90;;;;;;5091715;28;20028;-48
2023/09/30 00:36:23;;;;;;;6.28;3.33;;;25.30;99.90;;;;;;5091413;28;20265;-47
2023/09/30 00:38:49;;;;;;;6.50;3.70;;;25.30;99.90;;;;;;5089639;28;20027;-47
2023/09/30 00:41:15;;;;;;;7.10;3.97;;;25.20;99.90;;;;;;5097647;28;20027;-47
2023/09/30 00:43:41;;;;;;;9.60;4.45;;;25.20;99.90;;;;;;5108193;28;20015;-47
2023/09/30 00:46:20;;;;;;;8.63;4.07;;;25.20;99.90;;;;;;5107997;28;20053;-48
2023/09/30 00:48:46;;;;;;;5.15;3.83;;;25.20;99.90;;;;;;5106593;28;20503;-47
2023/09/30 00:51:12;;;;;;;8.23;3.95;;;25.20;99.90;;;;;;5101551;28;20039;-47
2023/09/30 00:53:38;;;;;;;4.88;3.83;;;25.20;99.90;;;;;;5107855;28;20024;-47
2023/09/30 00:56:05;;;;;;;5.22;3.50;;;25.20;99.90;;;;;;5095868;28;20068;-47
2023/09/30 00:58:31;;;;;;;7.23;3.60;;;25.20;99.90;;;;;;5096341;28;20016;-47
2023/09/30 01:00:58;;;;;;;11.35;3.58;;;25.20;99.90;;;;;;5109255;28;20102;-47
2023/09/30 01:03:24;;;;;;;9.88;4.22;;;25.20;99.90;;;;;;5099884;28;20028;-48
2023/09/30 01:05:49;;;;;;;5.35;3.92;;;25.20;99.90;;;;;;5106243;28;20027;-47
2023/09/30 01:08:17;;;;;;;7.72;3.78;;;25.20;99.90;;;;;;5096633;28;20036;-47
2023/09/30 01:10:43;;;;;;;6.43;3.60;;;25.20;99.90;;;;;;5089755;28;20051;-48
2023/09/30 01:13:09;;;;;;;4.72;3.80;;;25.10;99.90;;;;;;5089884;28;20031;-48
2023/09/30 01:15:36;;;;;;;4.30;3.33;;;25.10;99.90;;;;;;5089100;28;20418;-48
2023/09/30 01:18:03;;;;;;;9.73;4.25;;;25.10;99.90;;;;;;5088277;28;20099;-48
2023/09/30 01:20:29;;;;;;;5.97;3.17;;;25.20;99.90;;;;;;5088712;28;20038;-48
2023/09/30 01:22:57;;;;;;;5.38;3.58;;;25.20;99.90;;;;;;5090198;28;20020;-48
2023/09/30 01:25:24;;;;;;;6.57;3.42;;;25.30;99.90;;;;;;5090375;28;20422;-47
2023/09/30 01:27:54;;;;;;;4.63;3.47;;;25.30;99.90;;;;;;5091232;28;20486;-47
2023/09/30 01:30:22;;;;;;;5.95;3.22;;;25.40;99.90;;;;;;5092115;28;20062;-48
2023/09/30 01:32:48;;;;;;;7.95;3.50;;;25.40;99.90;;;;;;5092120;28;20044;-48
2023/09/30 01:35:14;;;;;;;10.55;3.63;;;25.40;99.90;;;;;;5092018;28;20028;-48
2023/09/30 01:37:40;;;;;;;8.05;3.15;;;25.50;99.90;;;;;;5092055;28;20376;-47
2023/09/30 01:40:08;;;;;;;4.80;3.50;;;25.50;99.90;;;;;;5092309;28;20538;-48
2023/09/30 01:42:34;;;;;;;4.80;3.33;;;25.50;99.90;;;;;;5092285;28;20024;-48
2023/09/30 01:44:59;;;;;;;6.90;3.90;;;25.50;99.90;;;;;;5092058;28;20106;-48
2023/09/30 01:47:25;;;;;;;5.05;3.55;;;25.60;99.90;;;;;;5091991;28;20445;-48
2023/09/30 01:49:51;;;;;;;7.65;3.83;;;25.60;99.90;;;;;;5095426;28;20043;-48
2023/09/30 01:52:17;;;;;;;8.10;4.10;;;25.60;99.90;;;;;;5095775;28;20099;-48
2023/09/30 01:54:42;;;;;;;7.13;3.58;;;25.60;99.90;;;;;;5095751;28;20034;-48
2023/09/30 01:57:08;;;;;;;7.45;3.20;;;25.60;99.90;;;;;;5095817;28;20032;-48
2023/09/30 01:59:34;;;;;;;6.03;3.42;;;25.60;99.90;;;;;;5095752;28;20025;-48
2023/09/30 02:02:01;;;;;;;4.15;3.53;;;25.60;99.90;;;;;;5080617;22;20049;-48
2023/09/30 02:04:27;;;;;;;9.57;3.33;;;25.70;99.90;;;;;;5055303;28;20025;-48
2023/09/30 02:06:52;;;;;;;8.10;3.63;;;25.70;99.90;;;;;;5055635;28;20025;-49
2023/09/30 02:09:18;;;;;;;5.47;3.35;;;25.70;99.90;;;;;;5055182;28;20481;-49
2023/09/30 02:11:44;;;;;;;7.53;3.83;;;25.60;99.90;;;;;;5055220;28;20461;-49
2023/09/30 02:14:11;;;;;;;9.82;3.40;;;25.70;99.90;;;;;;5054990;28;20096;-48
2023/09/30 02:16:38;;;;;;;5.70;4.25;;;25.70;99.90;;;;;;5055232;28;20027;-49
2023/09/30 02:19:04;;;;;;;5.47;3.50;;;25.70;99.90;;;;;;5055197;28;20542;-49
2023/09/30 02:21:32;;;;;;;;;;;25.70;99.90;;;;;;5055464;28;20021;-49
2023/09/30 02:23:57;;;;;;;10.18;3.97;;;25.70;99.90;;;;;;5054876;28;19912;-49
2023/09/30 02:26:25;;;;;;;9.70;3.72;;;25.70;99.90;;;;;;5054802;28;20033;-49
2023/09/30 02:28:52;;;;;;;;;;;25.70;99.90;;;;;;5055288;28;20051;-49
2023/09/30 02:31:18;;;;;;;6.68;3.60;;;25.70;99.90;;;;;;5054844;28;20349;-48
2023/09/30 02:33:43;;;;;;;7.63;3.80;;;25.80;99.90;;;;;;5054765;28;20036;-49
2023/09/30 02:36:09;;;;;;;12.32;3.22;;;25.80;99.90;;;;;;5054911;28;20028;-50
2023/09/30 02:38:38;;;;;;;4.93;3.78;;;25.80;99.90;;;;;;5054852;28;20025;-49
2023/09/30 02:41:05;;;;;;;7.78;3.90;;;25.70;99.90;;;;;;5054686;28;20570;-49
2023/09/30 02:43:30;;;;;;;7.87;4.40;;;25.80;99.90;;;;;;5054487;28;20457;-49
2023/09/30 02:45:56;;;;;;;8.20;3.92;;;25.80;99.90;;;;;;5054495;28;20078;-49
2023/09/30 02:48:22;;;;;;;10.05;3.88;;;25.80;99.90;;;;;;5054544;28;20053;-49
2023/09/30 02:50:48;;;;;;;6.20;4.13;;;25.80;99.90;;;;;;5054540;28;20037;-48
2023/09/30 02:53:14;;;;;;;5.10;3.92;;;25.80;99.90;;;;;;5052964;28;20461;-48
2023/09/30 02:55:43;;;;;;;8.68;4.25;;;25.80;99.90;;;;;;5053815;28;20024;-48
2023/09/30 02:58:09;;;;;;;6.72;4.25;;;25.80;99.90;;;;;;5053691;28;20535;-48
2023/09/30 03:00:35;;;;;;;9.93;4.18;;;25.80;99.90;;;;;;5053863;28;20037;-49
2023/09/30 03:03:02;;;;;;;6.40;3.95;;;25.80;99.90;;;;;;5054149;28;20046;-49
2023/09/30 03:05:30;;;;;;;6.72;4.57;;;25.80;99.90;;;;;;5054241;28;20029;-49
2023/09/30 03:07:56;;;;;;;6.72;4.15;;;25.80;99.90;;;;;;5054130;28;20049;-48
2023/09/30 03:10:26;;;;;;;7.88;4.47;;;25.80;99.90;;;;;;5053879;28;20064;-49
2023/09/30 03:12:56;;;;;;;9.60;4.45;;;25.70;99.90;;;;;;5054066;28;20033;-48
2023/09/30 03:15:23;;;;;;;5.65;4.18;;;25.80;99.90;;;;;;5054223;28;20036;-48
2023/09/30 03:17:49;;;;;;;8.20;4.32;;;25.80;99.90;;;;;;5054010;28;20013;-49
2023/09/30 03:20:19;;;;;;;9.50;4.75;;;25.70;99.90;;;;;;5053917;28;20032;-48
2023/09/30 03:22:47;;;;;;;5.03;4.30;;;25.80;99.90;;;;;;5053949;28;20066;-48
2023/09/30 03:25:17;;;;;;;5.47;4.75;;;25.70;99.90;;;;;;5054057;28;20036;-48
2023/09/30 03:27:43;;;;;;;14.25;4.80;;;25.70;99.90;;;;;;5052525;28;20528;-48
2023/09/30 03:30:12;;;;;;;8.32;4.22;;;25.70;99.90;;;;;;5053729;28;20033;-47
2023/09/30 03:32:38;;;;;;;9.45;4.53;;;25.70;99.90;;;;;;5053850;28;20466;-48
2023/09/30 03:35:10;;;;;;;7.72;4.47;;;25.70;99.90;;;;;;5053609;28;20029;-47
2023/09/30 03:37:37;;;;;;;7.35;4.80;;;25.70;99.90;;;;;;5053517;28;20021;-48
2023/09/30 03:40:11;;;;;;;9.30;4.55;;;25.70;99.90;;;;;;5053435;28;20025;-48
2023/09/30 03:42:39;;;;;;;5.28;4.57;;;25.70;99.90;;;;;;5052781;28;20040;-48
2023/09/30 03:45:09;;;;;;;9.32;4.82;;;25.70;99.90;;;;;;5053526;28;20103;-48
2023/09/30 03:47:36;;;;;;;8.52;4.60;;;25.70;99.90;;;;;;5051972;28;20021;-48
2023/09/30 03:50:03;;;;;;;;;;;25.70;99.90;;;;;;5053618;28;20033;-48
2023/09/30 03:52:29;;;;;;;8.90;4.55;;;25.60;99.90;;;;;;5053284;28;20007;-48
2023/09/30 03:54:55;;;;;;;6.80;4.55;;;25.60;99.90;;;;;;5053211;28;20032;-48
2023/09/30 03:57:21;;;;;;;8.23;4.90;;;25.60;99.90;;;;;;5053236;28;20416;-48
2023/09/30 03:59:46;;;;;;;5.45;4.32;;;25.60;99.90;;;;;;5053021;28;20039;-48
2023/09/30 04:02:14;;;;;;;7.10;4.15;;;25.50;99.90;;;;;;5053423;28;20044;-48
2023/09/30 04:04:40;;;;;;;;;;;25.60;99.90;;;;;;5053717;28;20017;-49
2023/09/30 04:07:06;;;;;;;6.80;5.13;;;25.50;99.90;;;;;;5053014;28;19948;-49
2023/09/30 04:09:33;;;;;;;7.82;4.35;;;25.50;99.90;;;;;;5052914;28;20079;-49
2023/09/30 04:11:58;;;;;;;7.30;5.28;;;25.50;99.90;;;;;;5052111;28;20431;-49
2023/09/30 04:14:25;;;;;;;12.02;4.60;;;25.50;99.90;;;;;;5052757;28;20017;-48
2023/09/30 04:16:50;;;;;;;7.05;4.90;;;25.40;99.90;;;;;;5051594;28;20025;-49
2023/09/30 04:19:16;;;;;;;6.93;4.13;;;25.50;99.90;;;;;;5052921;28;20024;-48
2023/09/30 04:21:43;;;;;;;9.25;4.15;;;25.40;99.90;;;;;;5052972;28;20025;-48
2023/09/30 04:24:09;;;;;;;10.15;4.88;;;25.40;99.90;;;;;;5052772;28;20048;-48
2023/09/30 04:26:35;;;;;;;7.35;4.70;;;25.40;99.90;;;;;;5052598;28;20021;-48
2023/09/30 04:29:04;;;;;;;5.65;4.80;;;25.40;99.90;;;;;;5052660;28;20037;-49
2023/09/30 04:31:30;;;;;;;9.13;5.25;;;25.40;99.90;;;;;;5052586;28;20072;-49
2023/09/30 04:33:57;;;;;;;8.73;5.03;;;25.40;99.90;;;;;;5052552;28;20052;-49
2023/09/30 04:36:24;;;;;;;5.63;4.78;;;25.40;99.90;;;;;;5052454;28;20064;-49
2023/09/30 04:38:49;;;;;;;11.98;5.93;;;25.40;99.90;;;;;;5052529;28;20025;-49
2023/09/30 04:41:15;;;;;;;10.00;5.28;;;25.40;99.90;;;;;;5052633;28;20540;-49
2023/09/30 04:43:43;;;;;;;6.28;4.55;;;25.40;99.90;;;;;;5052467;28;20040;-49
2023/09/30 04:46:09;;;;;;;9.73;5.47;;;25.40;99.90;;;;;;5052366;28;20381;-49
2023/09/30 04:48:35;;;;;;;7.47;4.93;;;25.40;99.90;;;;;;5052348;28;20028;-49
2023/09/30 04:51:04;;;;;;;7.30;5.38;;;25.40;99.90;;;;;;5050977;28;20527;-49
2023/09/30 04:53:33;;;;;;;12.50;5.78;;;25.40;99.90;;;;;;5052308;28;20341;-49
2023/09/30 04:55:59;;;;;;;8.48;5.07;;;25.40;99.90;;;;;;5052173;28;20033;-49
2023/09/30 04:58:26;;;;;;;7.63;5.85;;;25.40;99.90;;;;;;5052237;28;20394;-48
2023/09/30 05:00:52;;;;;;;8.73;5.35;;;25.30;99.90;;;;;;5051479;28;20037;-51
2023/09/30 05:03:19;;;;;;;7.35;5.30;;;25.30;99.90;;;;;;5052146;28;20021;-49
2023/09/30 05:05:44;;;;;;;6.50;5.15;;;25.30;99.90;;;;;;5052464;28;20082;-48
2023/09/30 05:08:12;;;;;;;11.70;5.03;;;25.30;99.90;;;;;;5050999;28;20021;-49
2023/09/30 05:10:38;;;;;;;8.98;4.97;;;25.30;99.90;;;;;;5051162;28;20036;-49
2023/09/30 05:13:04;;;;;;;6.05;4.55;;;25.30;99.90;;;;;;5050863;28;20021;-49
2023/09/30 05:15:32;;;;;;;8.73;5.13;;;25.30;99.90;;;;;;5051903;28;20046;-49
2023/09/30 05:17:58;;;;;;;5.75;4.97;;;25.30;99.90;;;;;;5050634;28;20018;-49
2023/09/30 05:20:24;;;;;;;10.48;4.88;;;25.30;99.90;;;;;;5051977;28;20492;-48
2023/09/30 05:22:50;;;;;;;7.95;5.32;;;25.30;99.90;;;;;;5054186;28;20044;-49
2023/09/30 05:25:16;;;;;;;7.32;5.20;;;25.30;99.90;;;;;;5056316;28;20521;-49
2023/09/30 05:27:47;;;;;;;7.28;5.03;;;25.30;99.90;;;;;;5055926;28;20043;-49
2023/09/30 05:30:15;;;;;;;11.73;5.85;;;25.30;99.90;;;;;;5056084;28;20187;-48
2023/09/30 05:32:41;;;;;;;9.18;5.03;;;25.30;99.90;;;;;;5055936;28;20041;-49
2023/09/30 05:35:14;;;;;;;9.27;5.05;;;25.30;99.90;;;;;;5054621;28;20029;-49
2023/09/30 05:37:41;;;;;;;8.40;5.30;;;25.30;99.90;;;;;;5055732;28;20043;-48
2023/09/30 05:40:16;;;;;;;8.73;5.05;;;25.30;99.90;;;;;;5055770;28;20032;-49
2023/09/30 05:42:44;;;;;;;13.82;5.05;;;25.30;99.90;;;;;;5055689;28;20111;-49
2023/09/30 05:45:12;;;;;;;6.80;4.90;;;25.20;99.90;;;;;;5055708;28;20433;-49
2023/09/30 05:47:39;;;;;;;7.75;4.97;;;25.20;99.90;;;;;;5054498;28;20086;-49
2023/09/30 05:50:06;;;;;;;10.30;5.17;;;25.20;99.90;;;;;;5055491;28;20025;-49
2023/09/30 05:52:33;;;;;;;;;;;25.20;99.90;;;;;;5055894;28;20021;-49
2023/09/30 05:55:00;;;;;;;6.88;4.70;;;25.20;99.90;;;;;;5055522;28;20296;-49
2023/09/30 05:57:27;;;;;;;7.07;5.45;;;25.20;99.90;;;;;;5055340;28;20021;-49
2023/09/30 05:59:53;;;;;;;8.80;5.07;;;25.30;99.90;;;;;;5055500;28;20025;-50
2023/09/30 06:02:19;;;;;;;5.13;4.63;;;25.20;99.90;;;;;;5054169;28;20470;-50
2023/09/30 06:04:46;;;;;;;8.18;5.03;;;25.20;99.90;;;;;;5055634;28;20021;-50
2023/09/30 06:07:12;;;;;;;6.87;4.77;;;25.20;99.90;;;;;;5055355;28;20483;-50
2023/09/30 06:09:38;;;;;;;6.30;5.07;;;25.20;99.90;;;;;;5055122;28;20025;-49
2023/09/30 06:12:06;;;;;;;7.50;4.57;;;25.20;99.90;;;;;;5055182;28;20024;-49
2023/09/30 06:14:32;;;;;;;7.05;4.80;;;25.20;99.90;;;;;;5055115;28;20488;-49
2023/09/30 06:16:58;;;;;;;7.43;5.25;;;25.20;99.90;;;;;;5055098;28;20029;-49
2023/09/30 06:19:25;;;;;;;6.28;4.47;;;25.20;99.90;;;;;;5053677;28;20048;-49
2023/09/30 06:21:52;;;;;;;7.70;4.55;;;25.20;99.90;;;;;;5054971;28;20050;-49
2023/09/30 06:24:20;;;;;;;8.40;5.22;;;25.20;99.90;;;;;;5055096;28;20389;-48
2023/09/30 06:26:48;;;;;;;6.65;4.78;;;25.20;99.90;;;;;;5055029;28;20025;-49
2023/09/30 06:29:14;;;;;;;7.28;4.90;;;25.20;99.90;;;;;;5054889;28;20489;-49
2023/09/30 06:31:40;;;;;;;8.45;4.25;;;25.20;99.90;;;;;;5054749;28;20036;-49
2023/09/30 06:34:06;;;;;;;10.85;4.90;;;25.20;99.90;;;;;;5053863;28;20025;-49
2023/09/30 06:36:32;;;;;;;9.15;4.88;;;25.20;99.90;;;;;;5054797;28;20035;-49
2023/09/30 06:38:59;;;;;;;8.98;5.38;;;25.20;99.90;;;;;;5054521;28;20021;-49
2023/09/30 06:41:25;;;;;;;8.13;5.40;;;25.20;99.90;;;;;;5054661;28;20471;-49
2023/09/30 06:43:51;;;;;;;6.22;4.85;;;25.20;99.90;;;;;;5054842;28;20100;-49
2023/09/30 06:46:17;;;;;;;12.35;5.20;;;25.20;99.90;;;;;;5054797;28;20025;-49
2023/09/30 06:48:43;;;;;;;9.98;4.97;;;25.20;99.90;;;;;;5054492;28;20101;-49
2023/09/30 06:51:18;;;;;;;7.18;4.22;;;25.20;99.90;;;;;;5054259;28;20464;-49
2023/09/30 06:53:45;;;;;;;10.55;5.05;;;25.20;99.90;;;;;;5054368;28;20029;-49
2023/09/30 06:56:12;;;;;;;;;;;25.30;99.90;;;;;;5054696;28;20078;-49
2023/09/30 06:58:38;;;;;;;9.10;6.07;;;25.30;99.90;;;;;;5054279;28;19954;-49
2023/09/30 07:01:04;;;;;;;9.30;5.10;;;25.30;99.90;;;;;;5054108;28;20065;-49
2023/09/30 07:03:30;;;;;;;10.15;4.45;;;25.30;99.90;;;;;;5054175;28;20039;-49
2023/09/30 07:05:56;;;;;;;7.38;4.20;;;25.40;99.90;;;;;;5054008;28;20025;-49
2023/09/30 07:08:22;;;;;;;10.77;4.75;;;25.40;99.90;;;;;;5054190;28;20021;-49
2023/09/30 07:10:52;;;;;;;7.57;4.45;;;25.40;99.90;;;;;;5052764;28;20477;-49
2023/09/30 07:13:18;;;;;;;11.23;4.78;;;25.40;99.90;;;;;;5054149;28;20528;-48
2023/09/30 07:15:44;;;;;;;10.70;4.30;;;25.40;99.90;;;;;;5053857;28;20109;-49
2023/09/30 07:18:11;;;;;;;6.22;4.72;;;25.40;99.90;;;;;;5052591;28;20025;-49
2023/09/30 07:20:37;;;;;;;;;;;25.50;99.90;;;;;;5054209;28;20021;-49
2023/09/30 07:23:03;;;;;;;5.65;4.07;;;25.50;99.90;;;;;;5053858;28;19927;-49
2023/09/30 07:25:31;;;;;;;7.28;4.78;;;25.50;99.90;;;;;;5053787;28;20488;-50
2023/09/30 07:27:58;;;;;;;7.45;4.60;;;25.60;99.90;;;;;;5053892;28;20397;-49
2023/09/30 07:30:25;;;;;;;6.40;5.15;;;25.60;99.90;;;;;;5053632;28;20040;-49
2023/09/30 07:32:51;;;;;;;5.28;4.53;;;25.70;99.90;;;;;;5053878;28;20059;-49
2023/09/30 07:35:18;;;;;;;9.52;5.07;;;25.70;99.90;;;;;;5053537;28;20025;-49
2023/09/30 07:37:44;;;;;;;8.07;5.28;;;25.70;99.90;;;;;;5053385;28;20100;-48
2023/09/30 07:40:10;;;;;;;11.55;4.78;;;25.80;99.90;;;;;;5053451;28;20017;-49
2023/09/30 07:42:36;;;;;;;10.38;5.55;;;25.80;99.90;;;;;;5053318;28;20079;-49
2023/09/30 07:45:06;;;;;;;13.23;6.25;;;25.80;99.90;;;;;;5053247;28;20082;-48
2023/09/30 07:47:33;;;;;;;16.17;6.28;;;25.90;99.90;;;;;;5053206;28;20025;-48
2023/09/30 07:50:02;;;;;;;6.68;4.93;;;26.00;99.90;;;;;;5053001;28;20036;-48
2023/09/30 07:52:27;;;;;;;8.10;5.18;;;26.00;99.90;;;;;;5053213;28;20029;-49
2023/09/30 07:54:53;;;;;;;8.15;5.78;;;26.00;99.90;;;;;;5053374;28;20037;-48
2023/09/30 07:57:20;;;;;;;7.68;5.95;;;26.00;99.90;;;;;;5053226;28;20097;-49
2023/09/30 07:59:46;;;;;;;9.30;4.80;;;26.10;99.90;;;;;;5053038;28;20013;-49
2023/09/30 08:02:12;;;;;;;7.20;5.80;;;26.20;99.90;;;;;;5052809;28;20106;-50
2023/09/30 08:04:37;;;;;;;9.25;5.93;;;26.20;99.90;;;;;;5052971;28;20021;-50
2023/09/30 08:07:03;;;;;;;8.77;5.45;;;26.20;99.90;;;;;;5035164;28;20029;-49
2023/09/30 08:09:29;;;;;;;6.43;5.03;;;26.30;99.90;;;;;;5052845;28;20022;-49
2023/09/30 08:11:56;;;;;;;7.05;5.10;;;26.30;99.90;;;;;;5053177;28;20120;-50
2023/09/30 08:14:21;;;;;;;8.18;5.53;;;26.30;99.90;;;;;;5052823;28;20070;-49
2023/09/30 08:16:49;;;;;;;7.45;5.28;;;26.40;99.90;;;;;;5052947;28;20104;-49
2023/09/30 08:19:15;;;;;;;10.25;5.90;;;26.40;99.90;;;;;;5052729;28;20029;-49
2023/09/30 08:21:40;;;;;;;8.50;5.25;;;26.50;99.90;;;;;;5052739;28;20021;-49
2023/09/30 08:24:08;;;;;;;6.32;5.72;;;26.50;99.90;;;;;;5052671;28;20100;-49
2023/09/30 08:26:35;;;;;;;6.28;5.18;;;26.50;99.90;;;;;;5052592;28;20025;-49
2023/09/30 08:29:01;;;;;;;8.43;5.88;;;26.60;99.90;;;;;;5052203;28;20033;-49
2023/09/30 08:31:27;;;;;;;10.30;6.00;;;26.60;99.90;;;;;;5052673;28;20037;-49
2023/09/30 08:33:52;;;;;;;6.93;5.35;;;26.70;99.90;;;;;;5052606;28;20060;-50
2023/09/30 08:36:18;;;;;;;8.85;5.78;;;26.70;99.90;;;;;;5052511;28;20029;-49
2023/09/30 08:38:44;;;;;;;6.47;5.50;;;26.80;99.90;;;;;;5052344;28;20462;-48
2023/09/30 08:41:10;;;;;;;7.00;5.82;;;26.80;99.90;;;;;;5052371;28;20017;-50
2023/09/30 08:43:40;;;;;;;7.00;5.40;;;26.80;99.90;;;;;;5052388;28;20024;-50
2023/09/30 08:46:06;;;;;;;6.22;4.68;;;26.90;99.90;;;;;;5067733;28;20024;-49
2023/09/30 08:48:33;;;;;;;7.68;5.32;;;26.90;99.90;;;;;;5052391;28;20104;-48
2023/09/30 08:51:00;;;;;;;7.63;5.60;;;26.90;99.90;;;;;;5052362;28;20512;-49
2023/09/30 08:53:28;;;;;;;8.55;5.55;;;27.00;99.90;;;;;;5052567;28;20085;-50
2023/09/30 08:55:55;;;;;;;;;;;27.00;99.90;;;;;;5052861;28;20028;-50
2023/09/30 08:58:24;;;;;;;10.90;6.35;;;27.10;99.90;;;;;;5051836;28;19934;-49
2023/09/30 09:00:50;;;;;;;11.20;7.03;;;27.20;99.90;;;;;;5051536;28;20499;-49
2023/09/30 09:03:20;;;;;;;6.38;5.22;;;27.20;99.90;;;;;;5052165;28;20029;-50
2023/09/30 09:05:47;;;;;;;7.07;5.32;;;27.20;99.90;;;;;;5052206;28;20492;-49
2023/09/30 09:08:13;;;;;;;10.20;7.53;;;27.30;99.90;;;;;;5052276;28;20028;-50
2023/09/30 09:10:59;;;;;;;8.15;6.25;;;27.30;99.90;;;;;;5052089;28;20127;-48
2023/09/30 09:13:25;;;;;;;10.98;6.38;;;27.40;99.90;;;;;;5052114;28;20440;-49
2023/09/30 09:16:11;;;;;;;10.95;5.55;;;27.40;99.90;;;;;;5051782;28;20074;-48
2023/09/30 09:18:37;;;;;;;10.27;5.43;;;27.40;99.90;;;;;;5051295;28;20098;-47
2023/09/30 09:21:14;;;;;;;7.43;6.60;;;27.50;99.90;;;;;;5049542;28;20025;-46
2023/09/30 09:23:42;;;;;;;6.57;5.90;;;27.60;99.90;;;;;;5051382;28;20021;-47
2023/09/30 09:26:12;;;;;;;9.13;6.95;;;27.60;99.90;;;;;;5066598;28;20024;-47
2023/09/30 09:28:39;;;;;;;11.38;6.85;;;27.70;99.90;;;;;;5050612;28;20492;-47
2023/09/30 09:31:29;;;;;;;11.48;6.45;;;27.70;99.90;;;;;;5050375;28;20511;-46
2023/09/30 09:33:55;;;;;;;8.13;5.57;;;27.80;99.90;;;;;;5040180;28;20104;-46
2023/09/30 09:36:21;;;;;;;8.73;4.53;;;27.90;99.90;;;;;;5050774;28;20021;-47
2023/09/30 09:38:52;;;;;;;7.80;5.43;;;27.90;99.90;;;;;;5051673;28;20462;-47
2023/09/30 09:41:19;;;;;;;7.82;5.75;;;28.00;99.90;;;;;;5051912;28;20037;-47
2023/09/30 09:43:48;;;;;;;9.60;5.85;;;28.00;99.90;;;;;;5051644;28;20036;-43
2023/09/30 09:46:13;;;;;;;9.05;6.07;;;28.10;99.90;;;;;;5047035;28;20021;-48
2023/09/30 09:48:40;;;;;;;8.50;5.80;;;28.20;99.90;;;;;;5051217;28;20021;-47
2023/09/30 09:51:09;;;;;;;11.38;5.25;;;28.20;99.90;;;;;;5049861;28;20033;-47
2023/09/30 09:53:37;;;;;;;7.18;5.82;;;28.20;99.90;;;;;;5050810;28;20024;-48
2023/09/30 09:56:04;;;;;;;5.85;4.70;;;28.30;99.90;;;;;;5051112;28;20040;-47
2023/09/30 09:58:34;;;;;;;13.52;5.82;;;28.30;99.90;;;;;;5051440;28;20039;-47
2023/09/30 10:01:02;;;;;;;8.73;5.63;;;28.40;99.90;;;;;;5051053;28;20064;-47
2023/09/30 10:03:27;;;;;;;9.68;5.15;;;28.40;99.90;;;;;;5043045;28;20017;-45
2023/09/30 10:05:54;;;;;;;7.47;4.63;;;28.50;99.90;;;;;;5048928;28;20023;-46
2023/09/30 10:08:27;;;;;;;6.63;5.32;;;28.50;99.90;;;;;;5048025;28;20025;-47
2023/09/30 10:10:54;;;;;;;6.25;4.32;;;28.60;99.90;;;;;;5051448;28;20397;-47
2023/09/30 10:13:51;;;;;;;7.72;4.45;;;28.70;99.90;;;;;;5050793;28;20024;-47
2023/09/30 10:16:35;;;;;;;8.32;3.95;;;28.70;99.90;;;;;;5052952;28;20021;-47
2023/09/30 10:19:29;;;;;;;9.75;4.65;;;28.70;99.90;;;;;;5052661;28;20083;-47
2023/09/30 10:22:19;;;;;;;8.38;6.15;;;28.80;99.90;;;;;;5050633;28;20123;-47
2023/09/30 10:25:02;;;;;;;6.47;5.00;;;28.80;99.90;;;;;;5050815;28;20017;-48
2023/09/30 10:27:34;;;;;;;7.05;6.15;;;28.80;99.90;;;;;;5051519;28;20025;-48
2023/09/30 10:30:09;;;;;;;8.55;5.35;;;28.80;99.90;;;;;;5052128;28;20044;-46
2023/09/30 10:32:50;;;;;;;12.68;8.07;;;28.80;99.90;;;;;;5050022;28;20109;-47
2023/09/30 10:35:28;;;;;;;7.60;6.88;;;28.80;99.90;;;;;;5050571;28;20423;-47
2023/09/30 10:38:22;;;;;;;7.50;6.20;;;28.90;99.90;;;;;;5050282;28;20428;-48
2023/09/30 10:40:48;;;;;;;9.98;6.70;;;29.00;99.90;;;;;;5050317;28;20059;-46
2023/09/30 10:43:31;;;;;;;6.35;4.95;;;29.00;99.90;;;;;;5051861;28;20017;-47
2023/09/30 10:45:57;;;;;;;7.32;4.25;;;29.00;99.90;;;;;;5051366;28;20381;-48
2023/09/30 10:48:36;;;;;;;;;;;29.00;99.90;;;;;;5052079;28;20362;-49
2023/09/30 10:51:15;;;;;;;7.97;5.53;;;29.10;99.90;;;;;;5050130;28;20487;-49
2023/09/30 10:53:51;;;;;;;9.98;5.57;;;29.20;99.90;;;;;;5050547;28;20025;-48
2023/09/30 10:56:18;;;;;;;7.32;4.00;;;29.30;99.90;;;;;;5051090;28;20028;-45
2023/09/30 10:58:45;;;;;;;7.45;4.22;;;29.30;99.90;;;;;;5051739;28;20032;-45
2023/09/30 11:01:13;;;;;;;4.85;3.17;;;29.40;99.90;;;;;;5051105;28;20096;-48
2023/09/30 11:03:39;;;;;;;8.32;4.38;;;29.40;99.90;;;;;;5051352;28;20017;-48
2023/09/30 11:06:05;;;;;;;5.60;3.70;;;29.50;99.90;;;;;;5049568;28;20377;-47
2023/09/30 11:08:32;;;;;;;10.35;4.38;;;29.60;99.90;;;;;;5051337;28;20017;-48
2023/09/30 11:11:00;;;;;;;6.57;4.90;;;29.60;99.90;;;;;;5051441;28;20757;-49
2023/09/30 11:13:34;;;;;;;7.45;4.60;;;29.70;99.90;;;;;;5051304;28;20028;-49
2023/09/30 11:16:04;;;;;;;5.38;4.57;;;29.70;99.90;;;;;;5049725;28;20159;-49
2023/09/30 11:18:31;;;;;;;7.18;4.50;;;29.70;99.90;;;;;;5049636;28;20078;-49
2023/09/30 11:21:12;;;;;;;8.55;5.30;;;29.80;99.90;;;;;;5049590;28;20020;-49
2023/09/30 11:23:40;;;;;;;8.13;4.97;;;29.90;99.90;;;;;;5050164;28;20164;-49
2023/09/30 11:26:06;;;;;;;7.15;3.92;;;29.90;99.90;;;;;;5050652;28;20100;-49
2023/09/30 11:28:50;;;;;;;6.53;4.27;;;30.00;99.90;;;;;;5051061;28;20063;-49
2023/09/30 11:31:17;;;;;;;7.68;4.18;;;30.00;99.90;;;;;;5049534;28;20044;-49
2023/09/30 11:33:48;;;;;;;;;;;30.10;99.90;;;;;;5048952;28;20025;-49
2023/09/30 11:36:15;;;;;;;5.63;4.00;;;30.20;99.90;;;;;;5050420;28;20432;-48
2023/09/30 11:38:46;;;;;;;6.50;4.03;;;30.30;99.90;;;;;;5050525;28;20073;-48
2023/09/30 11:41:12;;;;;;;6.90;3.15;;;30.30;99.90;;;;;;5051137;28;20417;-48
2023/09/30 11:43:39;;;;;;;5.95;3.53;;;30.30;99.90;;;;;;5050211;28;20044;-47
2023/09/30 11:46:13;;;;;;;5.65;3.42;;;30.40;99.90;;;;;;5050923;28;20056;-48
2023/09/30 11:48:57;;;;;;;7.00;3.25;;;30.40;99.90;;;;;;5049294;28;20075;-47
2023/09/30 11:51:26;;;;;;;7.40;3.35;;;30.40;99.90;;;;;;5050098;28;20573;-47
2023/09/30 11:53:57;;;;;;;6.72;3.53;;;30.40;99.90;;;;;;5048365;28;20029;-48
2023/09/30 11:56:27;;;;;;;12.55;3.72;;;30.50;99.90;;;;;;5051091;28;20017;-49
2023/09/30 11:58:54;;;;;;;4.35;2.70;;;30.50;99.90;;;;;;5050301;28;20472;-47
2023/09/30 12:01:21;;;;;;;5.70;2.80;;;30.50;99.90;;;;;;5050710;28;20047;-47
2023/09/30 12:03:48;;;;;;;7.38;3.35;;;30.50;99.90;;;;;;5049706;28;20009;-48
2023/09/30 12:06:16;;;;;;;5.72;3.50;;;30.50;99.90;;;;;;5050330;28;20021;-48
2023/09/30 12:08:42;;;;;;;;;;;30.60;99.90;;;;;;5050633;28;20040;-47
2023/09/30 12:11:07;;;;;;;5.25;3.95;;;30.60;99.90;;;;;;5050316;28;19966;-47
2023/09/30 12:13:33;;;;;;;5.68;3.78;;;30.60;99.90;;;;;;5050483;28;20040;-48
2023/09/30 12:15:59;;;;;;;9.18;3.05;;;30.60;99.90;;;;;;5050038;28;20528;-48
2023/09/30 12:18:26;;;;;;;3.90;3.50;;;30.60;99.90;;;;;;5050841;28;20025;-49
2023/09/30 12:20:52;;;;;;;5.38;3.10;;;30.70;99.90;;;;;;5050606;28;20029;-48
2023/09/30 12:23:19;;;;;;;5.85;3.20;;;30.70;99.90;;;;;;5050179;28;20391;-48
2023/09/30 12:25:46;;;;;;;5.75;3.17;;;30.70;99.90;;;;;;5050607;28;20037;-47
2023/09/30 12:28:14;;;;;;;5.88;3.80;;;30.80;99.90;;;;;;5050180;28;20028;-48
2023/09/30 12:30:40;;;;;;;5.95;3.50;;;30.80;99.90;;;;;;5049257;28;20401;-49
2023/09/30 12:33:06;;;;;;;6.22;2.80;;;30.80;99.90;;;;;;5048490;28;20098;-49
2023/09/30 12:35:33;;;;;;;8.57;3.73;;;30.80;99.90;;;;;;5049947;28;20062;-49
2023/09/30 12:37:59;;;;;;;4.05;3.03;;;30.80;99.90;;;;;;5050513;28;20257;-48
2023/09/30 12:40:25;;;;;;;4.13;3.13;;;30.90;99.90;;;;;;5049804;28;20018;-49
2023/09/30 12:42:51;;;;;;;5.55;2.50;;;30.90;99.90;;;;;;5049904;28;20117;-48
2023/09/30 12:45:18;;;;;;;6.90;3.58;;;30.90;99.90;;;;;;5049073;28;20017;-48
2023/09/30 12:47:44;;;;;;;3.38;2.78;;;31.00;99.90;;;;;;5049717;28;20404;-48
2023/09/30 12:50:10;;;;;;;6.93;3.40;;;31.00;99.90;;;;;;5049596;28;20482;-46
2023/09/30 12:52:38;;;;;;;8.80;3.45;;;31.00;99.90;;;;;;5048112;28;20077;-47